createdAt,value
2023-05-22T00:01:50.018Z,100.00
2023-05-22T00:04:21.512Z,100.00
2023-05-22T00:06:49.867Z,100.00
2023-05-22T00:09:18.094Z,100.00
2023-05-22T00:11:46.202Z,100.00
2023-05-22T00:14:14.255Z,100.00
2023-05-22T00:16:42.183Z,100.00
2023-05-22T00:19:16.700Z,100.00
2023-05-22T00:21:45.483Z,100.00
2023-05-22T00:24:13.577Z,100.00
2023-05-22T00:26:41.275Z,100.00
2023-05-22T00:29:09.544Z,100.00
2023-05-22T00:31:37.692Z,100.00
2023-05-22T00:34:05.882Z,100.00
2023-05-22T00:36:33.637Z,100.00
2023-05-22T00:39:01.651Z,100.00
2023-05-22T00:41:29.636Z,100.00
2023-05-22T00:43:57.852Z,100.00
2023-05-22T00:46:25.658Z,100.00
2023-05-22T00:48:53.726Z,100.00
2023-05-22T00:51:22.738Z,100.00
2023-05-22T00:53:51.214Z,100.00
2023-05-22T00:56:19.579Z,100.00
2023-05-22T00:58:48.125Z,100.00
2023-05-22T01:01:16.165Z,100.00
2023-05-22T01:03:46.075Z,100.00
2023-05-22T01:06:18.468Z,100.00
2023-05-22T01:08:46.553Z,100.00
2023-05-22T01:11:36.998Z,100.00
2023-05-22T01:14:25.693Z,100.00
2023-05-22T01:17:16.306Z,100.00
2023-05-22T01:19:50.918Z,100.00
2023-05-22T01:22:44.028Z,100.00
2023-05-22T01:25:26.673Z,100.00
2023-05-22T01:28:10.101Z,100.00
2023-05-22T01:30:52.737Z,100.00
2023-05-22T01:33:22.081Z,100.00
2023-05-22T01:35:54.189Z,100.00
2023-05-22T01:38:22.519Z,100.00
2023-05-22T01:40:51.196Z,100.00
2023-05-22T01:43:19.112Z,100.00
2023-05-22T01:45:47.469Z,100.00
2023-05-22T01:48:15.184Z,100.00
2023-05-22T01:50:45.390Z,100.00
2023-05-22T01:53:33.184Z,100.00
2023-05-22T01:56:10.143Z,100.00
2023-05-22T01:58:52.573Z,100.00
2023-05-22T02:01:22.718Z,100.00
2023-05-22T02:03:56.657Z,100.00
2023-05-22T02:06:29.112Z,100.00
2023-05-22T02:08:57.161Z,100.00
2023-05-22T02:11:28.503Z,100.00
2023-05-22T02:13:57.571Z,100.00
2023-05-22T02:16:25.889Z,100.00
2023-05-22T02:19:06.365Z,100.00
2023-05-22T02:21:36.207Z,100.00
2023-05-22T02:24:04.109Z,100.00
2023-05-22T02:26:32.440Z,100.00
2023-05-22T02:29:01.423Z,100.00
2023-05-22T02:31:29.880Z,100.00
2023-05-22T02:33:58.059Z,100.00
2023-05-22T02:36:26.416Z,100.00
2023-05-22T02:38:55.579Z,100.00
2023-05-22T02:41:25.193Z,100.00
2023-05-22T02:43:53.809Z,100.00
2023-05-22T02:46:21.945Z,100.00
2023-05-22T02:48:49.729Z,100.00
2023-05-22T02:51:19.707Z,100.00
2023-05-22T02:53:47.985Z,100.00
2023-05-22T02:56:16.091Z,100.00
2023-05-22T02:58:43.832Z,100.00
2023-05-22T03:01:11.831Z,100.00
2023-05-22T03:03:39.656Z,100.00
2023-05-22T03:06:08.949Z,100.00
2023-05-22T03:08:41.686Z,100.00
2023-05-22T03:11:10.134Z,100.00
2023-05-22T03:13:37.840Z,100.00
2023-05-22T03:16:06.357Z,100.00
2023-05-22T03:18:34.117Z,100.00
2023-05-22T03:21:02.218Z,100.00
2023-05-22T03:23:29.974Z,99.97
2023-05-22T03:25:58.043Z,99.72
2023-05-22T03:28:30.002Z,99.23
2023-05-22T03:30:58.098Z,98.37
2023-05-22T03:33:29.827Z,96.83
2023-05-22T03:35:57.977Z,95.02
2023-05-22T03:38:26.386Z,92.77
2023-05-22T03:40:54.836Z,90.76
2023-05-22T03:43:22.729Z,89.77
2023-05-22T03:45:51.581Z,89.00
2023-05-22T03:48:20.073Z,88.35
2023-05-22T03:50:48.222Z,88.12
2023-05-22T03:53:15.960Z,87.63
2023-05-22T03:55:44.072Z,87.14
2023-05-22T03:58:11.782Z,86.57
2023-05-22T04:00:40.408Z,86.75
2023-05-22T04:03:13.051Z,86.37
2023-05-22T04:05:41.451Z,85.88
2023-05-22T04:08:10.749Z,85.16
2023-05-22T04:10:39.144Z,84.29
2023-05-22T04:13:07.116Z,84.07
2023-05-22T04:15:35.429Z,83.20
2023-05-22T04:18:03.261Z,81.07
2023-05-22T04:20:32.351Z,79.93
2023-05-22T04:23:00.053Z,79.68
2023-05-22T04:25:28.046Z,77.13
2023-05-22T04:27:55.839Z,69.68
2023-05-22T04:30:25.770Z,68.05
2023-05-22T04:32:53.764Z,63.24
2023-05-22T04:35:23.630Z,62.42
2023-05-22T04:37:51.633Z,62.57
2023-05-22T04:40:19.776Z,62.33
2023-05-22T04:42:47.946Z,62.54
2023-05-22T04:45:16.015Z,62.54
2023-05-22T04:47:43.835Z,62.98
2023-05-22T04:50:12.112Z,63.35
2023-05-22T04:52:39.899Z,63.06
2023-05-22T04:55:08.651Z,62.59
2023-05-22T04:57:36.419Z,62.97
2023-05-22T05:00:06.047Z,62.26
2023-05-22T05:02:35.632Z,61.14
2023-05-22T05:05:03.897Z,61.67
2023-05-22T05:07:31.654Z,61.82
2023-05-22T05:09:59.663Z,60.62
2023-05-22T05:12:28.180Z,58.57
2023-05-22T05:14:56.494Z,58.00
2023-05-22T05:17:24.254Z,58.03
2023-05-22T05:19:52.263Z,55.94
2023-05-22T05:22:20.120Z,55.71
2023-05-22T05:24:48.198Z,55.78
2023-05-22T05:27:16.077Z,54.80
2023-05-22T05:29:45.633Z,54.55
2023-05-22T05:32:22.637Z,53.73
2023-05-22T05:35:12.495Z,54.95
2023-05-22T05:37:49.997Z,53.80
2023-05-22T05:40:19.222Z,52.63
2023-05-22T05:42:51.391Z,52.66
2023-05-22T05:45:24.006Z,52.75
2023-05-22T05:47:53.164Z,52.35
2023-05-22T05:50:21.446Z,51.15
2023-05-22T05:52:49.253Z,51.20
2023-05-22T05:55:19.444Z,49.96
2023-05-22T05:57:48.418Z,49.12
2023-05-22T06:00:23.672Z,46.46
2023-05-22T06:02:52.980Z,44.55
2023-05-22T06:05:34.985Z,44.52
2023-05-22T06:08:19.934Z,43.73
2023-05-22T06:10:48.425Z,42.23
2023-05-22T06:13:34.172Z,42.23
2023-05-22T06:16:05.719Z,41.25
2023-05-22T06:18:35.037Z,39.43
2023-05-22T06:21:03.016Z,39.15
2023-05-22T06:23:30.961Z,38.25
2023-05-22T06:25:59.410Z,37.32
2023-05-22T06:28:27.950Z,37.64
2023-05-22T06:30:58.054Z,37.91
2023-05-22T06:33:28.152Z,38.73
2023-05-22T06:35:56.668Z,36.37
2023-05-22T06:38:24.524Z,35.64
2023-05-22T06:40:52.494Z,35.97
2023-05-22T06:43:23.773Z,35.17
2023-05-22T06:45:56.332Z,34.78
2023-05-22T06:48:24.182Z,34.10
2023-05-22T06:51:02.665Z,32.87
2023-05-22T06:53:30.473Z,32.56
2023-05-22T06:55:58.980Z,32.02
2023-05-22T06:58:36.966Z,31.95
2023-05-22T07:01:07.888Z,30.42
2023-05-22T07:03:41.211Z,29.48
2023-05-22T07:06:29.212Z,29.77
2023-05-22T07:08:57.721Z,29.95
2023-05-22T07:11:25.918Z,28.20
2023-05-22T07:13:53.755Z,25.67
2023-05-22T07:16:23.597Z,24.25
2023-05-22T07:18:51.514Z,22.04
2023-05-22T07:21:19.840Z,22.04
2023-05-22T07:23:48.549Z,18.81
2023-05-22T07:26:16.679Z,18.65
2023-05-22T07:28:51.204Z,18.75
2023-05-22T07:31:19.394Z,18.57
2023-05-22T07:33:48.884Z,17.98
2023-05-22T07:36:19.163Z,17.13
2023-05-22T07:38:47.335Z,16.37
2023-05-22T07:41:15.890Z,16.45
2023-05-22T07:43:43.944Z,15.27
2023-05-22T07:46:15.591Z,15.56
2023-05-22T07:48:55.186Z,14.64
2023-05-22T07:51:23.332Z,14.75
2023-05-22T07:53:53.469Z,14.29
2023-05-22T07:56:22.241Z,14.20
2023-05-22T07:58:52.089Z,14.83
2023-05-22T08:01:22.621Z,14.33
2023-05-22T08:03:50.519Z,14.22
2023-05-22T08:06:19.090Z,13.96
2023-05-22T08:08:46.956Z,13.96
2023-05-22T08:11:14.948Z,14.18
2023-05-22T08:13:42.811Z,14.05
2023-05-22T08:16:11.193Z,13.80
2023-05-22T08:18:39.037Z,13.42
2023-05-22T08:21:07.086Z,13.36
2023-05-22T08:23:36.469Z,12.34
2023-05-22T08:26:04.893Z,13.44
2023-05-22T08:28:32.855Z,13.85
2023-05-22T08:31:01.141Z,14.05
2023-05-22T08:33:28.945Z,14.75
2023-05-22T08:35:56.888Z,15.41
2023-05-22T08:38:24.679Z,15.63
2023-05-22T08:40:55.800Z,15.89
2023-05-22T08:43:24.625Z,16.09
2023-05-22T08:46:06.098Z,16.58
2023-05-22T08:48:34.274Z,16.42
2023-05-22T08:51:06.094Z,15.84
2023-05-22T08:53:38.995Z,15.47
2023-05-22T08:56:08.729Z,15.11
2023-05-22T08:58:38.366Z,15.03
2023-05-22T09:01:07.531Z,14.92
2023-05-22T09:03:37.768Z,16.16
2023-05-22T09:06:11.177Z,16.65
2023-05-22T09:08:39.404Z,18.42
2023-05-22T09:11:07.453Z,18.54
2023-05-22T09:13:35.263Z,19.42
2023-05-22T09:16:11.436Z,19.63
2023-05-22T09:18:40.176Z,19.56
2023-05-22T09:21:21.568Z,18.27
2023-05-22T09:24:01.347Z,17.95
2023-05-22T09:26:29.974Z,17.89
2023-05-22T09:29:00.135Z,16.88
2023-05-22T09:31:32.015Z,16.46
2023-05-22T09:34:00.066Z,16.40
2023-05-22T09:36:34.849Z,16.74
2023-05-22T09:39:04.450Z,16.52
2023-05-22T09:41:37.746Z,17.20
2023-05-22T09:44:26.981Z,18.42
2023-05-22T09:46:55.876Z,17.74
2023-05-22T09:49:23.587Z,18.03
2023-05-22T09:51:54.281Z,17.19
2023-05-22T09:54:25.830Z,15.98
2023-05-22T09:56:59.275Z,16.17
2023-05-22T09:59:30.531Z,16.27
2023-05-22T10:02:02.057Z,15.87
2023-05-22T10:04:33.189Z,15.91
2023-05-22T10:07:03.793Z,16.29
2023-05-22T10:09:35.758Z,16.19
2023-05-22T10:12:08.124Z,16.79
2023-05-22T10:14:36.714Z,16.86
2023-05-22T10:17:07.005Z,18.46
2023-05-22T10:19:39.458Z,18.83
2023-05-22T10:22:11.206Z,20.02
2023-05-22T10:24:41.252Z,20.27
2023-05-22T10:27:09.320Z,21.56
2023-05-22T10:29:58.246Z,21.83
2023-05-22T10:32:42.539Z,21.95
2023-05-22T10:35:58.029Z,21.80
2023-05-22T10:38:26.180Z,22.33
2023-05-22T10:40:54.909Z,22.53
2023-05-22T10:43:23.588Z,22.82
2023-05-22T10:46:06.570Z,23.15
2023-05-22T10:48:39.527Z,23.60
2023-05-22T10:51:08.549Z,23.18
2023-05-22T10:53:37.094Z,23.40
2023-05-22T10:56:14.112Z,23.08
2023-05-22T10:58:57.665Z,22.84
2023-05-22T11:01:28.611Z,23.75
2023-05-22T11:04:07.178Z,24.06
2023-05-22T11:06:49.020Z,24.11
2023-05-22T11:09:31.897Z,23.64
2023-05-22T11:12:25.153Z,24.16
2023-05-22T11:14:58.127Z,24.35
2023-05-22T11:17:36.353Z,24.25
2023-05-22T11:20:05.836Z,24.41
2023-05-22T11:22:38.387Z,23.95
2023-05-22T11:25:20.301Z,24.38
2023-05-22T11:27:49.280Z,23.51
2023-05-22T11:30:17.779Z,23.13
2023-05-22T11:32:48.061Z,22.80
2023-05-22T11:35:17.887Z,22.59
2023-05-22T11:37:46.206Z,22.20
2023-05-22T11:40:22.059Z,22.45
2023-05-22T11:42:50.070Z,22.97
2023-05-22T11:45:18.159Z,22.92
2023-05-22T11:47:46.574Z,23.60
2023-05-22T11:50:17.932Z,23.62
2023-05-22T11:52:53.687Z,23.66
2023-05-22T11:55:22.964Z,23.21
2023-05-22T11:57:50.769Z,23.57
2023-05-22T12:00:19.401Z,23.69
2023-05-22T12:02:50.398Z,24.30
2023-05-22T12:05:21.707Z,24.28
2023-05-22T12:07:49.822Z,24.58
2023-05-22T12:10:18.062Z,24.12
2023-05-22T12:12:48.139Z,23.46
2023-05-22T12:15:22.625Z,23.19
2023-05-22T12:17:54.671Z,23.06
2023-05-22T12:20:22.695Z,22.46
2023-05-22T12:22:50.491Z,22.35
2023-05-22T12:25:18.549Z,22.81
2023-05-22T12:27:46.403Z,23.19
2023-05-22T12:30:15.449Z,23.80
2023-05-22T12:32:49.096Z,23.79
2023-05-22T12:35:18.161Z,23.92
2023-05-22T12:37:52.254Z,23.93
2023-05-22T12:40:20.529Z,24.06
2023-05-22T12:42:48.887Z,23.85
2023-05-22T12:45:18.091Z,24.15
2023-05-22T12:47:46.285Z,23.80
2023-05-22T12:50:14.692Z,23.72
2023-05-22T12:52:42.367Z,23.70
2023-05-22T12:55:11.611Z,23.92
2023-05-22T12:57:39.393Z,23.23
2023-05-22T13:00:07.937Z,23.59
2023-05-22T13:02:35.839Z,23.29
2023-05-22T13:05:04.214Z,23.81
2023-05-22T13:07:32.430Z,23.75
2023-05-22T13:10:00.583Z,23.69
2023-05-22T13:12:28.305Z,23.22
2023-05-22T13:14:56.418Z,23.80
2023-05-22T13:17:24.482Z,23.98
2023-05-22T13:19:54.514Z,23.58
2023-05-22T13:22:22.976Z,23.72
2023-05-22T13:24:51.173Z,23.74
2023-05-22T13:27:19.294Z,23.86
2023-05-22T13:29:47.253Z,23.99
2023-05-22T13:32:15.301Z,24.23
2023-05-22T13:34:43.694Z,24.07
2023-05-22T13:37:11.717Z,23.86
2023-05-22T13:39:39.984Z,24.34
2023-05-22T13:42:08.374Z,24.71
2023-05-22T13:44:36.404Z,25.03
2023-05-22T13:47:05.200Z,25.38
2023-05-22T13:49:33.304Z,24.63
2023-05-22T13:52:01.082Z,24.43
2023-05-22T13:54:29.302Z,24.64
2023-05-22T13:56:57.849Z,24.60
2023-05-22T13:59:26.168Z,25.04
2023-05-22T14:01:53.922Z,26.13
2023-05-22T14:04:21.925Z,25.51
2023-05-22T14:06:49.731Z,25.43
2023-05-22T14:09:18.149Z,25.58
2023-05-22T14:11:46.563Z,26.47
2023-05-22T14:14:14.598Z,26.06
2023-05-22T14:16:42.406Z,25.60
2023-05-22T14:19:10.590Z,25.60
2023-05-22T14:21:38.418Z,25.44
2023-05-22T14:24:06.586Z,25.90
2023-05-22T14:26:34.347Z,26.05
2023-05-22T14:29:02.515Z,26.14
2023-05-22T14:31:30.448Z,26.04
2023-05-22T14:33:58.535Z,26.03
2023-05-22T14:36:26.268Z,26.72
2023-05-22T14:38:57.050Z,26.79
2023-05-22T14:41:24.775Z,27.23
2023-05-22T14:43:52.740Z,27.77
2023-05-22T14:46:20.538Z,26.77
2023-05-22T14:48:48.956Z,27.29
2023-05-22T14:51:18.410Z,26.82
2023-05-22T14:53:46.461Z,27.22
2023-05-22T14:56:14.214Z,27.09
2023-05-22T14:58:42.310Z,27.39
2023-05-22T15:01:10.067Z,27.41
2023-05-22T15:03:38.324Z,27.65
2023-05-22T15:06:06.229Z,28.15
2023-05-22T15:08:34.195Z,28.46
2023-05-22T15:11:01.929Z,28.30
2023-05-22T15:13:29.967Z,27.75
2023-05-22T15:15:58.513Z,27.98
2023-05-22T15:18:27.323Z,28.21
2023-05-22T15:20:55.350Z,27.86
2023-05-22T15:23:25.454Z,28.23
2023-05-22T15:25:54.368Z,28.50
2023-05-22T15:28:23.209Z,28.09
2023-05-22T15:30:50.933Z,28.22
2023-05-22T15:33:18.989Z,27.63
2023-05-22T15:35:47.638Z,27.31
2023-05-22T15:38:16.698Z,27.68
2023-05-22T15:40:44.729Z,27.43
2023-05-22T15:43:12.767Z,27.31
2023-05-22T15:45:41.136Z,27.57
2023-05-22T15:48:09.420Z,27.73
2023-05-22T15:50:37.233Z,27.97
2023-05-22T15:53:05.247Z,27.79
2023-05-22T15:55:34.026Z,28.32
2023-05-22T15:58:07.779Z,28.75
2023-05-22T16:00:41.059Z,28.86
2023-05-22T16:03:11.367Z,28.86
2023-05-22T16:05:40.350Z,29.00
2023-05-22T16:08:10.523Z,28.74
2023-05-22T16:10:41.483Z,28.56
2023-05-22T16:13:10.725Z,28.77
2023-05-22T16:15:40.329Z,29.06
2023-05-22T16:18:09.736Z,29.10
2023-05-22T16:20:37.695Z,28.89
2023-05-22T16:23:05.765Z,29.11
2023-05-22T16:25:33.495Z,29.23
2023-05-22T16:28:01.517Z,29.30
2023-05-22T16:30:30.153Z,29.64
2023-05-22T16:32:58.397Z,29.76
2023-05-22T16:35:26.234Z,29.98
2023-05-22T16:37:54.220Z,30.13
2023-05-22T16:40:22.078Z,30.59
2023-05-22T16:42:51.737Z,31.23
2023-05-22T16:45:19.557Z,31.19
2023-05-22T16:47:47.541Z,31.05
2023-05-22T16:50:15.461Z,30.90
2023-05-22T16:52:43.433Z,30.92
2023-05-22T16:55:11.272Z,31.12
2023-05-22T16:57:40.201Z,31.10
2023-05-22T17:00:10.946Z,31.27
2023-05-22T17:02:39.306Z,31.43
2023-05-22T17:05:08.266Z,32.16
2023-05-22T17:07:36.213Z,32.41
2023-05-22T17:10:04.070Z,32.54
2023-05-22T17:12:32.213Z,32.71
2023-05-22T17:14:59.999Z,32.66
2023-05-22T17:17:28.175Z,33.12
2023-05-22T17:19:56.122Z,33.50
2023-05-22T17:22:24.180Z,33.73
2023-05-22T17:24:51.890Z,34.22
2023-05-22T17:27:34.478Z,34.42
2023-05-22T17:30:04.868Z,34.68
2023-05-22T17:32:33.121Z,35.24
2023-05-22T17:35:02.104Z,35.54
2023-05-22T17:37:30.147Z,35.39
2023-05-22T17:39:57.874Z,35.78
2023-05-22T17:42:25.942Z,35.93
2023-05-22T17:44:53.709Z,36.28
2023-05-22T17:47:21.909Z,36.64
2023-05-22T17:49:49.775Z,37.02
2023-05-22T17:52:17.794Z,37.43
2023-05-22T17:54:45.636Z,37.45
2023-05-22T17:57:13.770Z,37.73
2023-05-22T17:59:41.694Z,38.06
2023-05-22T18:02:09.858Z,38.26
2023-05-22T18:04:37.712Z,38.70
2023-05-22T18:07:05.952Z,39.01
2023-05-22T18:09:33.668Z,39.38
2023-05-22T18:12:03.583Z,39.74
2023-05-22T18:14:31.748Z,40.39
2023-05-22T18:16:59.620Z,41.04
2023-05-22T18:19:27.725Z,41.65
2023-05-22T18:21:55.656Z,42.06
2023-05-22T18:24:25.063Z,42.54
2023-05-22T18:26:54.761Z,43.03
2023-05-22T18:29:23.046Z,44.27
2023-05-22T18:31:50.952Z,44.96
2023-05-22T18:34:19.082Z,45.71
2023-05-22T18:36:46.781Z,46.40
2023-05-22T18:39:14.939Z,47.28
2023-05-22T18:41:42.610Z,48.13
2023-05-22T18:44:10.682Z,48.70
2023-05-22T18:46:38.515Z,49.46
2023-05-22T18:49:06.504Z,50.51
2023-05-22T18:51:35.803Z,51.18
2023-05-22T18:54:03.852Z,51.94
2023-05-22T18:56:32.066Z,52.56
2023-05-22T18:59:00.117Z,53.55
2023-05-22T19:01:27.956Z,54.32
2023-05-22T19:03:55.981Z,54.82
2023-05-22T19:06:25.957Z,55.44
2023-05-22T19:08:53.928Z,56.26
2023-05-22T19:11:21.749Z,56.60
2023-05-22T19:13:49.781Z,57.35
2023-05-22T19:16:17.687Z,58.15
2023-05-22T19:18:46.127Z,58.72
2023-05-22T19:21:13.906Z,59.39
2023-05-22T19:23:42.871Z,59.98
2023-05-22T19:26:10.811Z,60.85
2023-05-22T19:28:38.841Z,61.54
2023-05-22T19:31:06.597Z,62.28
2023-05-22T19:33:34.823Z,62.95
2023-05-22T19:36:02.977Z,63.74
2023-05-22T19:38:31.258Z,64.66
2023-05-22T19:40:59.026Z,65.02
2023-05-22T19:43:27.180Z,65.65
2023-05-22T19:45:55.602Z,66.40
2023-05-22T19:48:23.737Z,67.12
2023-05-22T19:50:51.562Z,67.48
2023-05-22T19:53:19.590Z,67.86
2023-05-22T19:55:47.711Z,68.33
2023-05-22T19:58:15.859Z,68.29
2023-05-22T20:00:44.035Z,68.82
2023-05-22T20:03:12.622Z,69.28
2023-05-22T20:05:40.777Z,69.53
2023-05-22T20:08:10.248Z,69.99
2023-05-22T20:10:38.272Z,70.47
2023-05-22T20:13:07.798Z,71.31
2023-05-22T20:15:35.604Z,72.29
2023-05-22T20:18:03.999Z,72.57
2023-05-22T20:20:31.838Z,73.14
2023-05-22T20:22:59.855Z,73.84
2023-05-22T20:25:27.601Z,74.21
2023-05-22T20:27:55.625Z,74.80
2023-05-22T20:30:23.476Z,75.43
2023-05-22T20:32:52.043Z,76.13
2023-05-22T20:35:20.268Z,76.69
2023-05-22T20:37:48.808Z,76.76
2023-05-22T20:40:17.535Z,77.13
2023-05-22T20:42:46.373Z,77.47
2023-05-22T20:45:16.135Z,77.65
2023-05-22T20:47:44.724Z,77.79
2023-05-22T20:50:12.561Z,78.38
2023-05-22T20:52:40.695Z,78.78
2023-05-22T20:55:09.019Z,79.58
2023-05-22T20:57:36.943Z,80.12
2023-05-22T21:00:06.597Z,80.42
2023-05-22T21:02:34.699Z,80.34
2023-05-22T21:05:02.666Z,80.20
2023-05-22T21:07:30.677Z,81.00
2023-05-22T21:09:58.461Z,81.47
2023-05-22T21:12:26.448Z,82.13
2023-05-22T21:14:54.176Z,82.76
2023-05-22T21:17:22.848Z,83.42
2023-05-22T21:19:50.624Z,83.63
2023-05-22T21:22:18.625Z,84.33
2023-05-22T21:24:46.395Z,84.86
2023-05-22T21:27:14.406Z,85.03
2023-05-22T21:29:42.095Z,85.17
2023-05-22T21:32:10.095Z,85.11
2023-05-22T21:34:37.791Z,85.24
2023-05-22T21:37:05.914Z,85.78
2023-05-22T21:39:33.637Z,86.31
2023-05-22T21:42:01.665Z,86.50
2023-05-22T21:44:29.363Z,87.01
2023-05-22T21:46:57.340Z,87.53
2023-05-22T21:49:25.085Z,87.63
2023-05-22T21:51:53.170Z,88.02
2023-05-22T21:54:21.025Z,88.48
2023-05-22T21:56:49.033Z,89.02
2023-05-22T21:59:16.806Z,89.11
2023-05-22T22:01:44.816Z,89.37
2023-05-22T22:04:12.710Z,89.97
2023-05-22T22:06:41.009Z,90.33
2023-05-22T22:09:09.319Z,90.74
2023-05-22T22:11:37.293Z,91.42
2023-05-22T22:14:05.274Z,91.66
2023-05-22T22:16:35.659Z,91.45
2023-05-22T22:19:04.936Z,90.99
2023-05-22T22:21:33.601Z,90.50
2023-05-22T22:24:01.364Z,90.31
2023-05-22T22:26:30.724Z,90.88
2023-05-22T22:28:58.983Z,91.44
2023-05-22T22:31:26.982Z,91.94
2023-05-22T22:33:54.707Z,92.15
2023-05-22T22:36:22.944Z,92.39
2023-05-22T22:38:50.784Z,92.44
2023-05-22T22:41:18.774Z,92.75
2023-05-22T22:43:46.856Z,93.23
2023-05-22T22:46:14.857Z,93.57
2023-05-22T22:48:42.730Z,93.87
2023-05-22T22:51:10.811Z,93.88
2023-05-22T22:53:38.782Z,93.20
2023-05-22T22:56:06.855Z,93.19
2023-05-22T22:58:34.642Z,93.64
2023-05-22T23:01:02.677Z,93.89
2023-05-22T23:03:30.661Z,94.08
2023-05-22T23:05:58.608Z,94.92
2023-05-22T23:08:26.397Z,95.00
2023-05-22T23:10:54.549Z,95.16
2023-05-22T23:13:22.345Z,95.82
2023-05-22T23:15:50.452Z,96.15
2023-05-22T23:18:18.265Z,96.10
2023-05-22T23:20:46.465Z,96.63
2023-05-22T23:23:14.283Z,96.49
2023-05-22T23:25:42.665Z,96.52
2023-05-22T23:28:10.662Z,96.88
2023-05-22T23:30:38.752Z,97.57
2023-05-22T23:33:06.517Z,97.37
2023-05-22T23:35:34.551Z,97.16
2023-05-22T23:38:02.383Z,97.59
2023-05-22T23:40:30.410Z,97.58
2023-05-22T23:42:58.200Z,97.50
2023-05-22T23:45:26.268Z,97.96
2023-05-22T23:47:54.162Z,98.31
2023-05-22T23:50:22.168Z,98.04
2023-05-22T23:52:49.933Z,98.51
2023-05-22T23:55:17.983Z,98.57
2023-05-22T23:57:45.760Z,98.68
